Tuesday, June 19, 2018, 12:58 AM EDT
Back to Local

K1P1, Plymouth, Plymouth Municipal Airport

Location: Plymouth, NH, United States Lat: 43.779
Local Time: 12:58 AM EDT ( 4:58 GMT) Lon: -71.754
Time Zone: US/Eastern Elev: 505 ft

Show me the last for .
Show Decoded

2018-06-19 00:35 METAR K1P1 190435Z AUTO 00000KT 22/21 A2961 RMK AO2 P0002 T02180206 PWINO =
2018-06-19 00:15 METAR K1P1 190415Z AUTO 29005KT 22/21 A2962 RMK AO2 P0001 T02180207 PWINO =
2018-06-18 23:55 METAR K1P1 190355Z AUTO 00000KT 22/21 A2962 RMK AO2 P0026 T02160205 403070141
                 PWINO =
2018-06-18 23:35 METAR K1P1 190335Z AUTO 31004KT BKN024 OVC034 22/21 A2962 RMK AO2 P0008
                 T02170207 PWINO =
2018-06-18 23:15 METAR K1P1 190315Z AUTO 00000KT 22/21 A2961 RMK AO2 T02170207 PWINO =
2018-06-18 22:55 METAR K1P1 190255Z AUTO 00000KT 22/21 A2962 RMK AO2 T02150205 PWINO =
2018-06-18 22:35 METAR K1P1 190235Z AUTO 00000KT 22/21 A2963 RMK AO2 T02150205 PWINO =
2018-06-18 22:15 METAR K1P1 190215Z AUTO 00000KT 22/21 A2963 RMK AO2 T02150205 PWINO =
2018-06-18 21:55 METAR K1P1 190155Z AUTO 00000KT BKN043 OVC060 22/21 A2963 RMK AO2 T02150205
                 PWINO =
2018-06-18 21:35 METAR K1P1 190135Z AUTO 00000KT BKN044 OVC060 22/21 A2964 RMK AO2 T02170207
                 PWINO =
2018-06-18 21:15 METAR K1P1 190115Z AUTO 00000KT BKN047 BKN070 BKN080 22/21 A2963 RMK AO2
                 T02160205 PWINO =
2018-06-18 20:55 METAR K1P1 190055Z AUTO 00000KT 22/21 A2963 RMK AO2 T02180207 PWINO =
2018-06-18 20:35 METAR K1P1 190035Z AUTO 00000KT 22/21 A2963 RMK AO2 T02200207 PWINO =
2018-06-18 20:15 METAR K1P1 190015Z AUTO 00000KT BKN110 22/21 A2965 RMK AO2 T02200207 PWINO =
2018-06-18 19:55 METAR K1P1 182355Z AUTO 00000KT 22/21 A2965 RMK AO2 60014 T02210207 10307 20221
                 PWINO =
2018-06-18 19:35 METAR K1P1 182335Z AUTO 00000KT 23/21 A2966 RMK AO2 T02250210 PWINO =
2018-06-18 19:15 METAR K1P1 182315Z AUTO 00000KT 22/21 A2967 RMK AO2 T02240208 PWINO =
2018-06-18 18:55 METAR K1P1 182255Z AUTO 00000KT 23/21 A2967 RMK AO2 LTG DSNT E P0002 T02260209
                 PWINO =
2018-06-18 18:35 METAR K1P1 182235Z AUTO 00000KT 23/20 A2969 RMK AO2 LTG DSNT E P0002 T02300203
                 PWINO =
2018-06-18 18:15 METAR K1P1 182215Z AUTO 35009G17KT VCTS SCT011 SCT033 BKN039 24/21 A2971 RMK AO2
                 LTG DSNT NW THRU E P0001 T02440206 =
2018-06-18 17:55 METAR K1P1 182155Z AUTO 00000KT VCTS 25/23 A2967 RMK AO2 LTG DSNT N AND NW P0007
                 T02450225 =
2018-06-18 17:35 METAR K1P1 182135Z AUTO 00000KT SCT070 25/22 A2968 RMK AO2 LTG DSNT E AND NW
                 T02520221 PWINO =
2018-06-18 17:15 METAR K1P1 182115Z AUTO 00000KT SCT070 26/23 A2968 RMK AO2 LTG DSNT NW T02580227
                 PWINO =
2018-06-18 16:55 METAR K1P1 182055Z AUTO 35003KT SCT070 26/23 A2970 RMK AO2 LTG DSNT E P0005
                 60005 T02590227 PWINO =
2018-06-18 16:35 METAR K1P1 182035Z AUTO 00000KT SCT012 SCT024 SCT030 26/23 A2971 RMK AO2 LTG
                 DSNT NW THRU E P0005 T02570228 PWINO =
2018-06-18 16:15 METAR K1P1 182015Z AUTO 00000KT VCTS SCT012 SCT026 BKN047 26/22 A2970 RMK AO2
                 LTG DSNT NW THRU E P0005 T02570218 =
2018-06-18 15:55 METAR K1P1 181955Z AUTO 28006KT SCT050 SCT065 SCT090 29/21 A2971 RMK AO2 LTG
                 DSNT W THRU N T02890205 PWINO =
2018-06-18 15:35 METAR K1P1 181935Z AUTO 00000KT CLR 30/20 A2970 RMK AO2 LTG DSNT NW T02960200
                 PWINO =
2018-06-18 15:15 METAR K1P1 181915Z AUTO 00000KT CLR 30/20 A2971 RMK AO2 T03000200 PWINO =
2018-06-18 14:55 METAR K1P1 181855Z AUTO 00000KT SCT047 30/20 A2972 RMK AO2 LTG DSNT NW T03010196
                 PWINO =
2018-06-18 14:35 METAR K1P1 181835Z AUTO 00000KT SCT047 30/20 A2974 RMK AO2 T03030198 PWINO =
2018-06-18 14:15 METAR K1P1 181815Z AUTO 00000KT CLR 30/20 A2975 RMK AO2 T02970195 PWINO =
2018-06-18 13:55 METAR K1P1 181755Z AUTO 25009G14KT CLR 30/19 A2976 RMK AO2 LTG DSNT N T02980192
                 10305 20178 PWINO =
2018-06-18 13:35 METAR K1P1 181735Z AUTO 25004KT CLR 30/20 A2977 RMK AO2 LTG DSNT N T02970196
                 PWINO =
2018-06-18 13:15 METAR K1P1 181715Z AUTO 24005KT CLR 30/19 A2977 RMK AO2 T02970192 PWINO =
2018-06-18 12:55 METAR K1P1 181655Z AUTO 23007KT 210V270 CLR 30/19 A2979 RMK AO2 T02970192 PWINO
                 =
2018-06-18 12:35 METAR K1P1 181635Z AUTO 21006KT 180V260 CLR 30/19 A2979 RMK AO2 T03000189 PWINO
                 =
2018-06-18 12:15 METAR K1P1 181615Z AUTO 32005KT CLR 30/19 A2980 RMK AO2 T02990191 PWINO =
2018-06-18 11:55 METAR K1P1 181555Z AUTO 00000KT CLR 29/19 A2982 RMK AO2 T02850185 PWINO =
2018-06-18 11:35 METAR K1P1 181535Z AUTO 00000KT CLR 28/18 A2983 RMK AO2 T02780183 PWINO =
2018-06-18 11:15 METAR K1P1 181515Z AUTO 00000KT CLR 27/18 A2983 RMK AO2 T02700176 PWINO =
2018-06-18 10:55 METAR K1P1 181455Z AUTO 00000KT CLR 26/17 A2984 RMK AO2 T02580169 PWINO =
2018-06-18 10:35 METAR K1P1 181435Z AUTO 00000KT CLR 25/16 A2985 RMK AO2 T02510161 PWINO =
2018-06-18 10:15 METAR K1P1 181415Z AUTO 00000KT CLR 24/15 A2986 RMK AO2 T02380154 PWINO =
2018-06-18 09:55 METAR K1P1 181355Z AUTO 00000KT CLR 23/15 A2987 RMK AO2 T02260145 PWINO =
2018-06-18 09:35 METAR K1P1 181335Z AUTO 00000KT CLR 22/14 A2988 RMK AO2 T02220143 PWINO =
2018-06-18 09:15 METAR K1P1 181315Z AUTO 00000KT CLR 22/14 A2989 RMK AO2 T02180141 PWINO =
2018-06-18 08:55 METAR K1P1 181255Z AUTO 00000KT CLR 21/14 A2989 RMK AO2 T02110141 PWINO =
2018-06-18 08:35 METAR K1P1 181235Z AUTO 00000KT CLR 20/14 A2990 RMK AO2 T02020143 PWINO =
2018-06-18 08:15 METAR K1P1 181215Z AUTO 00000KT CLR 19/14 A2991 RMK AO2 T01920143 PWINO =
2018-06-18 07:55 METAR K1P1 181155Z AUTO 00000KT CLR 18/14 A2992 RMK AO2 T01770137 10177 20141
                 PWINO =
2018-06-18 07:35 METAR K1P1 181135Z AUTO 00000KT CLR 17/14 A2993 RMK AO2 T01720138 PWINO =
2018-06-18 07:15 METAR K1P1 181115Z AUTO 00000KT CLR 17/13 A2993 RMK AO2 T01650134 PWINO =
2018-06-18 06:55 METAR K1P1 181055Z AUTO 00000KT 16/14 A2994 RMK AO2 T01590136 PWINO =
2018-06-18 06:35 METAR K1P1 181035Z AUTO 00000KT 15/14 A2994 RMK AO2 T01540135 PWINO =
2018-06-18 06:15 METAR K1P1 181015Z AUTO 00000KT 15/13 A2993 RMK AO2 T01480133 PWINO =
2018-06-18 05:55 METAR K1P1 180955Z AUTO 00000KT 15/13 A2994 RMK AO2 T01450132 PWINO =
2018-06-18 05:35 METAR K1P1 180935Z AUTO 00000KT 14/13 A2994 RMK AO2 T01410128 PWINO =
2018-06-18 05:15 METAR K1P1 180915Z AUTO 00000KT 15/13 A2994 RMK AO2 T01460130 PWINO =
2018-06-18 04:55 METAR K1P1 180855Z AUTO 00000KT 15/13 A2996 RMK AO2 T01500131 PWINO =
2018-06-18 04:35 METAR K1P1 180835Z AUTO 00000KT 15/13 A2996 RMK AO2 T01500131 PWINO =
2018-06-18 04:15 METAR K1P1 180815Z AUTO 00000KT 15/13 A2997 RMK AO2 T01470130 PWINO =
2018-06-18 03:35 METAR K1P1 180735Z AUTO 00000KT 15/13 A2997 RMK AO2 T01500130 PWINO =
2018-06-18 03:15 METAR K1P1 180715Z AUTO 00000KT 15/13 A2997 RMK AO2 T01520131 PWINO =
2018-06-18 02:55 METAR K1P1 180655Z AUTO 00000KT 15/13 A2999 RMK AO2 T01520131 PWINO =
2018-06-18 02:35 METAR K1P1 180635Z AUTO 00000KT 15/13 A2999 RMK AO2 T01520131 PWINO =
2018-06-18 02:15 METAR K1P1 180615Z AUTO 00000KT 15/13 A3000 RMK AO2 T01530130 PWINO =
2018-06-18 01:55 METAR K1P1 180555Z AUTO 00000KT 15/13 A3001 RMK AO2 T01510131 10251 20147 PWINO
                 =
2018-06-18 01:35 METAR K1P1 180535Z AUTO 00000KT 15/13 A3001 RMK AO2 T01500131 PWINO =

Support USWX by starting your Amazon purchase here.